createdAt,value
2022-08-24T00:02:07.490Z,40.72
2022-08-24T00:04:38.524Z,41.19
2022-08-24T00:07:21.481Z,42.03
2022-08-24T00:09:57.807Z,41.41
2022-08-24T00:12:24.576Z,41.64
2022-08-24T00:14:51.086Z,41.73
2022-08-24T00:17:17.849Z,41.42
2022-08-24T00:19:44.370Z,41.52
2022-08-24T00:22:11.200Z,41.83
2022-08-24T00:24:37.950Z,42.70
2022-08-24T00:27:06.559Z,41.82
2022-08-24T00:29:33.772Z,41.54
2022-08-24T00:32:00.798Z,42.11
2022-08-24T00:34:27.948Z,42.23
2022-08-24T00:36:54.604Z,42.60
2022-08-24T00:39:21.314Z,41.68
2022-08-24T00:41:50.142Z,41.95
2022-08-24T00:44:18.231Z,42.88
2022-08-24T00:46:53.220Z,41.91
2022-08-24T00:49:40.954Z,42.05
2022-08-24T00:52:08.492Z,42.10
2022-08-24T00:54:45.963Z,42.88
2022-08-24T00:57:18.827Z,41.88
2022-08-24T00:59:54.194Z,41.90
2022-08-24T01:02:27.583Z,42.51
2022-08-24T01:04:59.754Z,41.45
2022-08-24T01:07:29.093Z,41.54
2022-08-24T01:10:08.810Z,41.49
2022-08-24T01:12:37.891Z,41.73
2022-08-24T01:15:07.842Z,42.14
2022-08-24T01:17:54.962Z,42.77
2022-08-24T01:20:23.421Z,41.96
2022-08-24T01:23:42.498Z,41.90
2022-08-24T01:26:15.064Z,41.55
2022-08-24T01:28:46.058Z,41.52
2022-08-24T01:31:13.635Z,41.15
2022-08-24T01:33:40.315Z,40.98
2022-08-24T01:36:20.242Z,40.96
2022-08-24T01:38:55.686Z,41.26
2022-08-24T01:41:24.722Z,41.10
2022-08-24T01:43:55.364Z,41.93
2022-08-24T01:46:21.969Z,41.73
2022-08-24T01:48:48.542Z,41.74
2022-08-24T01:51:15.145Z,41.71
2022-08-24T01:53:41.716Z,42.14
2022-08-24T01:56:08.482Z,41.55
2022-08-24T01:58:35.067Z,41.96
2022-08-24T02:01:01.636Z,41.06
2022-08-24T02:03:30.290Z,41.53
2022-08-24T02:05:57.298Z,41.55
2022-08-24T02:08:23.835Z,40.85
2022-08-24T02:10:56.760Z,41.21
2022-08-24T02:13:23.822Z,41.24
2022-08-24T02:15:50.633Z,40.80
2022-08-24T02:18:17.295Z,40.57
2022-08-24T02:20:45.279Z,41.64
2022-08-24T02:23:11.951Z,41.21
2022-08-24T02:25:38.523Z,41.12
2022-08-24T02:28:05.259Z,41.24
2022-08-24T02:30:32.973Z,41.65
2022-08-24T02:33:00.321Z,41.22
2022-08-24T02:35:29.460Z,41.10
2022-08-24T02:37:56.143Z,40.87
2022-08-24T02:40:22.921Z,40.36
2022-08-24T02:42:49.827Z,40.04
2022-08-24T02:45:16.482Z,40.91
2022-08-24T02:47:43.042Z,40.42
2022-08-24T02:50:13.133Z,39.94
2022-08-24T02:52:40.681Z,39.83
2022-08-24T02:55:10.220Z,40.16
2022-08-24T02:57:38.707Z,40.15
2022-08-24T03:00:10.771Z,40.03
2022-08-24T03:02:38.220Z,40.34
2022-08-24T03:05:05.645Z,40.58
2022-08-24T03:07:32.463Z,41.08
2022-08-24T03:09:59.077Z,41.61
2022-08-24T03:12:25.602Z,41.47
2022-08-24T03:14:52.242Z,41.61
2022-08-24T03:17:19.239Z,41.39
2022-08-24T03:19:45.801Z,41.55
2022-08-24T03:22:13.313Z,41.74
2022-08-24T03:24:39.873Z,41.02
2022-08-24T03:27:06.836Z,41.09
2022-08-24T03:29:35.839Z,41.21
2022-08-24T03:32:02.588Z,41.58
2022-08-24T03:34:29.227Z,41.17
2022-08-24T03:36:55.756Z,41.50
2022-08-24T03:39:22.322Z,41.83
2022-08-24T03:41:48.979Z,41.40
2022-08-24T03:44:15.655Z,41.18
2022-08-24T03:46:42.344Z,41.39
2022-08-24T03:49:10.050Z,41.16
2022-08-24T03:51:37.899Z,41.58
2022-08-24T03:54:07.500Z,41.47
2022-08-24T03:56:35.370Z,41.21
2022-08-24T03:59:01.932Z,41.35
2022-08-24T04:01:29.016Z,41.22
2022-08-24T04:03:56.072Z,41.01
2022-08-24T04:06:23.160Z,41.51
2022-08-24T04:08:50.488Z,41.33
2022-08-24T04:11:20.767Z,41.14
2022-08-24T04:13:48.101Z,41.15
2022-08-24T04:16:20.331Z,41.31
2022-08-24T04:18:47.219Z,41.40
2022-08-24T04:21:35.286Z,42.40
2022-08-24T04:24:04.070Z,42.05
2022-08-24T04:26:44.733Z,42.18
2022-08-24T04:29:14.117Z,42.62
2022-08-24T04:31:43.266Z,42.32
2022-08-24T04:34:10.805Z,42.09
2022-08-24T04:36:37.414Z,42.12
2022-08-24T04:39:04.501Z,42.29
2022-08-24T04:41:31.916Z,42.45
2022-08-24T04:43:59.888Z,42.79
2022-08-24T04:46:27.675Z,42.32
2022-08-24T04:48:54.801Z,42.26
2022-08-24T04:51:21.859Z,42.64
2022-08-24T04:53:50.310Z,43.05
2022-08-24T04:56:21.502Z,43.75
2022-08-24T04:58:48.051Z,44.26
2022-08-24T05:01:19.499Z,44.17
2022-08-24T05:03:48.810Z,44.26
2022-08-24T05:06:16.870Z,44.20
2022-08-24T05:08:43.939Z,44.31
2022-08-24T05:11:10.778Z,44.15
2022-08-24T05:13:38.067Z,44.21
2022-08-24T05:16:12.241Z,44.75
2022-08-24T05:18:40.806Z,44.74
2022-08-24T05:21:13.162Z,44.95
2022-08-24T05:23:43.857Z,44.67
2022-08-24T05:26:12.378Z,44.96
2022-08-24T05:28:39.371Z,44.12
2022-08-24T05:31:12.512Z,43.99
2022-08-24T05:33:39.327Z,43.63
2022-08-24T05:36:14.454Z,44.35
2022-08-24T05:38:40.955Z,44.52
2022-08-24T05:41:07.502Z,43.91
2022-08-24T05:43:34.179Z,43.85
2022-08-24T05:46:00.770Z,44.38
2022-08-24T05:48:27.495Z,44.45
2022-08-24T05:50:55.850Z,43.61
2022-08-24T05:53:22.880Z,43.68
2022-08-24T05:55:49.903Z,44.24
2022-08-24T05:58:30.511Z,43.90
2022-08-24T06:00:59.326Z,43.46
2022-08-24T06:03:27.002Z,43.15
2022-08-24T06:05:55.071Z,43.37
2022-08-24T06:08:21.812Z,43.08
2022-08-24T06:10:48.398Z,43.01
2022-08-24T06:13:16.635Z,43.04
2022-08-24T06:15:59.360Z,42.76
2022-08-24T06:18:30.514Z,42.24
2022-08-24T06:20:57.826Z,42.08
2022-08-24T06:23:24.847Z,42.50
2022-08-24T06:26:14.685Z,42.15
2022-08-24T06:28:42.061Z,42.06
2022-08-24T06:31:08.803Z,42.11
2022-08-24T06:33:35.505Z,41.91
2022-08-24T06:36:02.255Z,41.85
2022-08-24T06:38:31.349Z,41.66
2022-08-24T06:40:58.414Z,42.83
2022-08-24T06:43:25.176Z,42.91
2022-08-24T06:45:53.300Z,43.12
2022-08-24T06:48:19.935Z,43.36
2022-08-24T06:50:47.393Z,42.78
2022-08-24T06:53:15.071Z,43.03
2022-08-24T06:55:57.429Z,43.25
2022-08-24T06:58:26.045Z,43.31
2022-08-24T07:00:52.668Z,43.12
2022-08-24T07:03:20.973Z,43.51
2022-08-24T07:05:57.082Z,42.86
2022-08-24T07:08:23.942Z,42.94
2022-08-24T07:10:51.458Z,43.14
2022-08-24T07:13:18.001Z,42.68
2022-08-24T07:15:45.338Z,43.10
2022-08-24T07:18:16.991Z,42.97
2022-08-24T07:20:44.649Z,43.03
2022-08-24T07:23:14.388Z,43.52
2022-08-24T07:25:46.257Z,43.38
2022-08-24T07:28:15.903Z,44.17
2022-08-24T07:30:42.764Z,44.06
2022-08-24T07:33:10.248Z,43.96
2022-08-24T07:35:38.763Z,43.93
2022-08-24T07:38:08.172Z,43.80
2022-08-24T07:40:55.817Z,43.38
2022-08-24T07:43:22.134Z,43.37
2022-08-24T07:45:49.697Z,43.00
2022-08-24T07:48:16.238Z,43.48
2022-08-24T07:50:43.136Z,43.25
2022-08-24T07:53:14.909Z,42.92
2022-08-24T07:55:46.096Z,42.54
2022-08-24T07:58:12.970Z,42.26
2022-08-24T08:00:39.494Z,42.68
2022-08-24T08:03:06.575Z,42.93
2022-08-24T08:05:39.050Z,43.03
2022-08-24T08:08:05.910Z,43.13
2022-08-24T08:10:35.966Z,42.79
2022-08-24T08:13:04.282Z,42.71
2022-08-24T08:15:31.423Z,42.84
2022-08-24T08:17:58.658Z,42.53
2022-08-24T08:20:25.560Z,42.75
2022-08-24T08:23:10.912Z,42.52
2022-08-24T08:25:38.492Z,42.43
2022-08-24T08:28:18.527Z,42.48
2022-08-24T08:30:53.787Z,42.20
2022-08-24T08:33:20.632Z,42.11
2022-08-24T08:35:49.159Z,42.41
2022-08-24T08:38:16.086Z,42.25
2022-08-24T08:41:00.245Z,41.96
2022-08-24T08:43:43.711Z,41.82
2022-08-24T08:46:28.457Z,42.09
2022-08-24T08:49:15.939Z,41.69
2022-08-24T08:51:48.668Z,41.97
2022-08-24T08:54:23.722Z,41.86
2022-08-24T08:57:26.091Z,41.16
2022-08-24T09:00:15.697Z,40.99
2022-08-24T09:02:54.370Z,40.77
2022-08-24T09:05:42.717Z,40.08
2022-08-24T09:08:24.259Z,41.28
2022-08-24T09:11:10.919Z,41.48
2022-08-24T09:14:14.699Z,41.10
2022-08-24T09:16:47.281Z,41.05
2022-08-24T09:19:13.697Z,41.47
2022-08-24T09:21:58.727Z,40.52
2022-08-24T09:24:52.251Z,40.57
2022-08-24T09:27:36.850Z,42.32
2022-08-24T09:30:25.712Z,40.32
2022-08-24T09:33:15.195Z,41.62
2022-08-24T09:35:50.739Z,40.72
2022-08-24T09:38:26.405Z,40.86
2022-08-24T09:41:05.490Z,40.65
2022-08-24T09:44:09.433Z,41.32
2022-08-24T09:46:54.338Z,39.63
2022-08-24T09:49:45.529Z,40.26
2022-08-24T09:52:23.011Z,38.44
2022-08-24T09:55:04.922Z,37.99
2022-08-24T09:58:09.807Z,38.96
2022-08-24T10:01:02.926Z,38.52
2022-08-24T10:03:54.190Z,39.77
2022-08-24T10:06:32.062Z,39.51
2022-08-24T10:09:36.499Z,40.02
2022-08-24T10:12:13.387Z,40.25
2022-08-24T10:15:02.251Z,39.35
2022-08-24T10:17:37.435Z,38.62
2022-08-24T10:20:16.770Z,38.76
2022-08-24T10:22:58.251Z,38.60
2022-08-24T10:25:55.622Z,38.88
2022-08-24T10:28:27.865Z,37.27
2022-08-24T10:31:13.042Z,37.86
2022-08-24T10:33:54.813Z,37.77
2022-08-24T10:36:31.113Z,39.27
2022-08-24T10:39:22.312Z,37.27
2022-08-24T10:42:41.678Z,38.03
2022-08-24T10:45:31.384Z,37.66
2022-08-24T10:48:04.344Z,36.33
2022-08-24T10:50:57.927Z,36.32
2022-08-24T10:53:28.645Z,35.82
2022-08-24T10:56:06.029Z,35.80
2022-08-24T10:58:44.489Z,34.85
2022-08-24T11:01:18.889Z,37.10
2022-08-24T11:04:09.412Z,36.73
2022-08-24T11:06:42.412Z,35.58
2022-08-24T11:09:19.938Z,35.06
2022-08-24T11:11:49.339Z,34.46
2022-08-24T11:14:15.827Z,34.62
2022-08-24T11:16:46.821Z,32.72
2022-08-24T11:19:35.258Z,34.29
2022-08-24T11:22:06.399Z,32.29
2022-08-24T11:24:43.827Z,30.85
2022-08-24T11:27:16.087Z,30.84
2022-08-24T11:29:51.724Z,29.25
2022-08-24T11:32:25.836Z,29.43
2022-08-24T11:34:52.411Z,28.75
2022-08-24T11:37:27.051Z,27.38
2022-08-24T11:39:55.735Z,26.86
2022-08-24T11:42:32.493Z,26.42
2022-08-24T11:45:23.727Z,26.33
2022-08-24T11:48:05.302Z,25.40
2022-08-24T11:50:41.166Z,28.74
2022-08-24T11:53:29.958Z,25.64
2022-08-24T11:56:01.944Z,24.85
2022-08-24T11:58:38.399Z,25.48
2022-08-24T12:01:26.934Z,25.70
2022-08-24T12:04:30.736Z,25.12
2022-08-24T12:07:10.791Z,22.59
2022-08-24T12:10:20.632Z,24.45
2022-08-24T12:13:09.222Z,22.81
2022-08-24T12:15:43.516Z,23.04
2022-08-24T12:18:44.055Z,23.22
2022-08-24T12:21:14.275Z,21.41
2022-08-24T12:23:50.019Z,21.36
2022-08-24T12:26:28.715Z,21.71
2022-08-24T12:29:07.851Z,21.32
2022-08-24T12:31:46.204Z,22.55
2022-08-24T12:34:21.354Z,22.55
2022-08-24T12:37:15.936Z,20.74
2022-08-24T12:39:53.852Z,20.84
2022-08-24T12:42:28.574Z,21.06
2022-08-24T12:45:09.226Z,20.96
2022-08-24T12:47:45.694Z,19.72
2022-08-24T12:50:51.740Z,20.84
2022-08-24T12:53:40.619Z,20.91
2022-08-24T12:56:35.068Z,20.95
2022-08-24T12:59:01.841Z,19.15
2022-08-24T13:01:36.198Z,19.30
2022-08-24T13:04:31.542Z,19.17
2022-08-24T13:07:07.322Z,19.50
2022-08-24T13:09:47.317Z,19.50
2022-08-24T13:12:45.825Z,19.71
2022-08-24T13:15:21.135Z,18.37
2022-08-24T13:18:02.495Z,17.98
2022-08-24T13:20:29.676Z,18.35
2022-08-24T13:23:11.143Z,19.33
2022-08-24T13:25:56.326Z,19.08
2022-08-24T13:28:22.818Z,17.16
2022-08-24T13:31:14.392Z,18.67
2022-08-24T13:33:49.094Z,17.74
2022-08-24T13:36:41.930Z,18.91
2022-08-24T13:39:36.416Z,18.99
2022-08-24T13:42:11.922Z,17.33
2022-08-24T13:44:46.604Z,17.69
2022-08-24T13:47:22.853Z,17.91
2022-08-24T13:50:02.237Z,18.12
2022-08-24T13:53:16.359Z,18.84
2022-08-24T13:56:34.178Z,18.75
2022-08-24T13:59:11.345Z,18.33
2022-08-24T14:01:59.529Z,18.25
2022-08-24T14:04:26.196Z,18.03
2022-08-24T14:07:15.704Z,17.93
2022-08-24T14:10:12.128Z,16.53
2022-08-24T14:13:01.390Z,17.46
2022-08-24T14:15:49.419Z,17.39
2022-08-24T14:18:28.018Z,16.93
2022-08-24T14:21:21.837Z,16.92
2022-08-24T14:23:57.182Z,15.58
2022-08-24T14:26:40.318Z,16.04
2022-08-24T14:29:15.734Z,16.18
2022-08-24T14:32:11.922Z,16.63
2022-08-24T14:34:53.750Z,15.44
2022-08-24T14:37:26.212Z,15.51
2022-08-24T14:40:03.188Z,16.05
2022-08-24T14:42:51.240Z,17.55
2022-08-24T14:45:36.659Z,16.57
2022-08-24T14:48:24.287Z,15.99
2022-08-24T14:51:07.875Z,16.63
2022-08-24T14:54:17.067Z,16.37
2022-08-24T14:57:15.247Z,16.70
2022-08-24T14:59:49.016Z,16.03
2022-08-24T15:02:28.258Z,15.36
2022-08-24T15:05:41.148Z,15.81
2022-08-24T15:12:15.800Z,15.55
2022-08-24T15:14:58.445Z,15.24
2022-08-24T15:17:39.297Z,14.55
2022-08-24T15:20:18.944Z,16.29
2022-08-24T15:22:48.184Z,15.29
2022-08-24T15:25:33.612Z,15.15
2022-08-24T15:28:11.654Z,14.67
2022-08-24T15:30:41.890Z,14.82
2022-08-24T15:33:19.180Z,14.73
2022-08-24T15:35:48.976Z,14.88
2022-08-24T15:38:46.256Z,14.78
2022-08-24T15:41:16.239Z,15.30
2022-08-24T15:43:51.985Z,15.13
2022-08-24T15:46:23.302Z,14.95
2022-08-24T15:48:51.049Z,15.31
2022-08-24T15:51:36.722Z,15.44
2022-08-24T15:54:30.124Z,15.44
2022-08-24T15:57:01.734Z,15.67
2022-08-24T15:59:40.966Z,16.20
2022-08-24T16:02:26.179Z,15.98
2022-08-24T16:05:19.164Z,16.36
2022-08-24T16:08:05.956Z,16.45
2022-08-24T16:10:45.760Z,16.64
2022-08-24T16:13:33.664Z,16.69
2022-08-24T16:16:15.260Z,16.38
2022-08-24T16:18:55.218Z,16.49
2022-08-24T16:21:34.821Z,16.99
2022-08-24T16:24:01.400Z,17.16
2022-08-24T16:26:32.886Z,17.14
2022-08-24T16:29:00.162Z,17.34
2022-08-24T16:31:45.261Z,18.33
2022-08-24T16:34:23.510Z,18.00
2022-08-24T16:36:50.301Z,18.91
2022-08-24T16:39:16.885Z,18.84
2022-08-24T16:41:43.867Z,19.35
2022-08-24T16:44:10.804Z,19.31
2022-08-24T16:46:39.014Z,19.56
2022-08-24T16:49:12.553Z,20.20
2022-08-24T16:51:45.275Z,21.01
2022-08-24T16:54:12.287Z,21.67
2022-08-24T16:56:39.076Z,22.70
2022-08-24T16:59:06.880Z,22.81
2022-08-24T17:01:33.737Z,22.93
2022-08-24T17:04:00.406Z,22.89
2022-08-24T17:06:27.150Z,23.49
2022-08-24T17:08:53.998Z,24.07
2022-08-24T17:11:20.645Z,24.21
2022-08-24T17:13:50.353Z,24.80
2022-08-24T17:16:18.582Z,25.34
2022-08-24T17:18:45.270Z,25.05
2022-08-24T17:21:12.049Z,25.41
2022-08-24T17:23:40.727Z,25.75
2022-08-24T17:26:20.950Z,26.16
2022-08-24T17:28:50.679Z,26.37
2022-08-24T17:31:17.396Z,26.38
2022-08-24T17:33:44.028Z,26.63
2022-08-24T17:36:15.707Z,26.89
2022-08-24T17:38:54.559Z,27.86
2022-08-24T17:41:25.671Z,28.34
2022-08-24T17:43:53.368Z,28.47
2022-08-24T17:46:20.405Z,28.26
2022-08-24T17:48:47.828Z,29.09
2022-08-24T17:51:15.446Z,29.61
2022-08-24T17:53:42.043Z,29.99
2022-08-24T17:56:09.854Z,29.71
2022-08-24T17:58:56.676Z,30.10
2022-08-24T18:01:23.725Z,30.74
2022-08-24T18:03:50.600Z,30.72
2022-08-24T18:06:19.725Z,31.23
2022-08-24T18:08:48.324Z,31.20
2022-08-24T18:11:15.017Z,31.28
2022-08-24T18:13:42.191Z,31.48
2022-08-24T18:16:17.439Z,32.15
2022-08-24T18:18:44.032Z,32.13
2022-08-24T18:21:10.680Z,32.01
2022-08-24T18:23:39.658Z,32.53
2022-08-24T18:26:10.914Z,32.62
2022-08-24T18:28:37.485Z,33.33
2022-08-24T18:31:04.828Z,34.04
2022-08-24T18:33:31.322Z,34.28
2022-08-24T18:35:58.846Z,34.83
2022-08-24T18:38:26.795Z,34.59
2022-08-24T18:40:53.603Z,34.06
2022-08-24T18:43:22.971Z,34.06
2022-08-24T18:45:50.225Z,33.31
2022-08-24T18:48:16.783Z,34.39
2022-08-24T18:50:43.345Z,33.90
2022-08-24T18:53:13.227Z,34.62
2022-08-24T18:55:39.762Z,34.23
2022-08-24T18:58:06.895Z,34.64
2022-08-24T19:00:33.547Z,35.15
2022-08-24T19:03:04.618Z,35.57
2022-08-24T19:05:31.404Z,35.76
2022-08-24T19:07:57.938Z,35.21
2022-08-24T19:10:30.767Z,34.81
2022-08-24T19:13:02.852Z,35.86
2022-08-24T19:15:39.463Z,34.68
2022-08-24T19:18:09.818Z,34.88
2022-08-24T19:20:40.761Z,35.02
2022-08-24T19:23:12.112Z,35.53
2022-08-24T19:25:42.721Z,34.75
2022-08-24T19:28:09.559Z,35.38
2022-08-24T19:30:37.450Z,35.38
2022-08-24T19:33:08.177Z,35.84
2022-08-24T19:35:37.085Z,35.48
2022-08-24T19:38:03.958Z,35.89
2022-08-24T19:40:30.728Z,36.08
2022-08-24T19:42:57.429Z,36.09
2022-08-24T19:45:44.361Z,35.60
2022-08-24T19:48:12.059Z,35.23
2022-08-24T19:50:39.967Z,34.89
2022-08-24T19:53:06.887Z,36.25
2022-08-24T19:55:33.716Z,34.87
2022-08-24T19:58:29.431Z,35.41
2022-08-24T20:01:01.753Z,34.70
2022-08-24T20:03:28.390Z,34.78
2022-08-24T20:05:55.137Z,34.89
2022-08-24T20:08:22.181Z,34.52
2022-08-24T20:10:49.784Z,34.75
2022-08-24T20:13:16.510Z,34.96
2022-08-24T20:15:43.704Z,34.98
2022-08-24T20:18:10.792Z,34.27
2022-08-24T20:20:38.009Z,34.33
2022-08-24T20:23:06.436Z,33.88
2022-08-24T20:25:37.650Z,34.36
2022-08-24T20:28:28.310Z,34.23
2022-08-24T20:30:52.958Z,33.82
2022-08-24T20:33:23.924Z,33.55
2022-08-24T20:35:51.153Z,33.38
2022-08-24T20:38:20.015Z,33.71
2022-08-24T20:40:47.056Z,34.50
2022-08-24T20:43:14.669Z,34.68
2022-08-24T20:45:41.752Z,34.31
2022-08-24T20:48:12.093Z,33.90
2022-08-24T20:50:43.468Z,34.53
2022-08-24T20:53:11.664Z,33.89
2022-08-24T20:55:41.933Z,34.13
2022-08-24T20:58:09.383Z,34.12
2022-08-24T21:00:36.832Z,34.63
2022-08-24T21:03:03.844Z,34.06
2022-08-24T21:05:30.598Z,34.43
2022-08-24T21:07:58.040Z,34.18
2022-08-24T21:10:27.078Z,35.33
2022-08-24T21:12:54.834Z,34.89
2022-08-24T21:15:23.321Z,34.50
2022-08-24T21:17:50.397Z,34.23
2022-08-24T21:20:17.569Z,34.30
2022-08-24T21:22:46.208Z,34.96
2022-08-24T21:25:14.542Z,34.80
2022-08-24T21:27:44.196Z,34.65
2022-08-24T21:30:14.332Z,34.80
2022-08-24T21:32:59.507Z,34.55
2022-08-24T21:35:26.375Z,34.44
2022-08-24T21:37:53.266Z,34.31
2022-08-24T21:40:21.886Z,35.01
2022-08-24T21:42:48.898Z,34.75
2022-08-24T21:45:15.854Z,34.33
2022-08-24T21:47:42.466Z,34.79
2022-08-24T21:50:09.871Z,34.76
2022-08-24T21:52:36.409Z,35.32
2022-08-24T21:55:03.719Z,35.30
2022-08-24T21:57:30.363Z,34.89
2022-08-24T21:59:56.878Z,34.97
2022-08-24T22:02:23.465Z,34.60
2022-08-24T22:04:56.405Z,34.85
2022-08-24T22:07:24.612Z,34.44
2022-08-24T22:09:51.177Z,35.66
2022-08-24T22:12:18.400Z,35.33
2022-08-24T22:14:44.930Z,35.55
2022-08-24T22:17:11.691Z,35.25
2022-08-24T22:19:38.346Z,35.76
2022-08-24T22:22:05.259Z,34.96
2022-08-24T22:24:32.213Z,35.21
2022-08-24T22:26:58.823Z,35.54
2022-08-24T22:29:25.672Z,35.45
2022-08-24T22:31:52.226Z,35.14
2022-08-24T22:34:20.754Z,35.45
2022-08-24T22:36:48.384Z,35.18
2022-08-24T22:39:15.022Z,35.95
2022-08-24T22:41:41.588Z,35.60
2022-08-24T22:44:20.933Z,35.11
2022-08-24T22:46:53.501Z,35.39
2022-08-24T22:49:22.914Z,36.07
2022-08-24T22:51:49.702Z,35.47
2022-08-24T22:54:17.057Z,35.50
2022-08-24T22:56:47.199Z,36.16
2022-08-24T22:59:17.698Z,35.78
2022-08-24T23:01:46.532Z,35.54
2022-08-24T23:04:17.397Z,35.37
2022-08-24T23:06:44.120Z,35.33
2022-08-24T23:09:11.675Z,35.72
2022-08-24T23:11:39.110Z,35.53
2022-08-24T23:14:07.027Z,35.33
2022-08-24T23:16:37.188Z,35.72
2022-08-24T23:19:23.867Z,35.19
2022-08-24T23:21:50.685Z,35.49
2022-08-24T23:24:17.612Z,35.32
2022-08-24T23:26:44.227Z,35.41
2022-08-24T23:29:13.151Z,34.95
2022-08-24T23:31:40.861Z,35.40
2022-08-24T23:34:08.123Z,35.52
2022-08-24T23:36:36.112Z,35.49
2022-08-24T23:39:04.179Z,35.30
2022-08-24T23:41:33.232Z,35.62
2022-08-24T23:44:01.523Z,36.17
2022-08-24T23:46:28.116Z,36.42
2022-08-24T23:48:57.216Z,35.98
2022-08-24T23:51:25.499Z,35.92
2022-08-24T23:53:52.340Z,35.94
2022-08-24T23:56:31.838Z,37.36
2022-08-24T23:59:08.527Z,36.66
